sensor_id;sensor_type;location;lat;lon;timestamp;P1;durP1;ratioP1;P2;durP2;ratioP2
34102;SDS011;20381;54.498;18.206;2022-07-12T18:26:35;3.92;;;1.02;;
34102;SDS011;20381;54.498;18.206;2022-07-12T18:29:02;3.30;;;1.10;;
34102;SDS011;20381;54.498;18.206;2022-07-12T18:31:29;4.22;;;1.25;;
34102;SDS011;20381;54.498;18.206;2022-07-12T18:33:55;2.90;;;1.25;;
34102;SDS011;20381;54.498;18.206;2022-07-12T18:36:22;4.00;;;1.10;;
34102;SDS011;20381;54.498;18.206;2022-07-12T18:38:49;3.72;;;1.27;;
34102;SDS011;20381;54.498;18.206;2022-07-12T18:41:16;2.33;;;1.00;;
34102;SDS011;20381;54.498;18.206;2022-07-12T18:43:43;2.92;;;1.10;;
34102;SDS011;20381;54.498;18.206;2022-07-12T18:46:09;3.42;;;1.60;;
34102;SDS011;20381;54.498;18.206;2022-07-12T18:48:38;4.47;;;1.32;;
34102;SDS011;20381;54.498;18.206;2022-07-12T18:51:04;6.22;;;1.77;;
34102;SDS011;20381;54.498;18.206;2022-07-12T18:53:31;2.55;;;1.02;;
34102;SDS011;20381;54.498;18.206;2022-07-12T18:55:58;4.65;;;1.20;;
34102;SDS011;20381;54.498;18.206;2022-07-12T18:58:25;3.05;;;1.30;;
34102;SDS011;20381;54.498;18.206;2022-07-12T19:00:55;3.67;;;1.20;;
34102;SDS011;20381;54.498;18.206;2022-07-12T19:03:22;2.77;;;1.00;;
34102;SDS011;20381;54.498;18.206;2022-07-12T19:05:54;3.80;;;1.30;;
34102;SDS011;20381;54.498;18.206;2022-07-12T19:08:21;6.33;;;1.45;;
34102;SDS011;20381;54.498;18.206;2022-07-12T19:10:47;6.85;;;1.50;;
34102;SDS011;20381;54.498;18.206;2022-07-12T19:13:14;3.47;;;0.95;;
34102;SDS011;20381;54.498;18.206;2022-07-12T19:15:41;3.33;;;1.37;;
34102;SDS011;20381;54.498;18.206;2022-07-12T19:18:07;5.65;;;1.42;;
34102;SDS011;20381;54.498;18.206;2022-07-12T19:20:34;3.10;;;1.30;;
34102;SDS011;20381;54.498;18.206;2022-07-12T19:23:01;3.75;;;1.35;;
34102;SDS011;20381;54.498;18.206;2022-07-12T19:25:27;2.27;;;1.60;;
34102;SDS011;20381;54.498;18.206;2022-07-12T19:27:54;3.62;;;1.62;;
34102;SDS011;20381;54.498;18.206;2022-07-12T19:30:21;2.45;;;1.32;;
34102;SDS011;20381;54.498;18.206;2022-07-12T19:32:47;3.85;;;1.60;;
34102;SDS011;20381;54.498;18.206;2022-07-12T19:35:14;4.10;;;1.35;;
34102;SDS011;20381;54.498;18.206;2022-07-12T19:37:41;3.27;;;1.45;;
34102;SDS011;20381;54.498;18.206;2022-07-12T19:40:08;3.65;;;1.50;;
34102;SDS011;20381;54.498;18.206;2022-07-12T19:42:36;2.70;;;1.37;;
34102;SDS011;20381;54.498;18.206;2022-07-12T19:45:03;5.00;;;1.62;;
34102;SDS011;20381;54.498;18.206;2022-07-12T19:47:30;3.80;;;1.80;;
34102;SDS011;20381;54.498;18.206;2022-07-12T19:49:57;5.42;;;1.77;;
34102;SDS011;20381;54.498;18.206;2022-07-12T19:52:23;5.80;;;1.83;;
34102;SDS011;20381;54.498;18.206;2022-07-12T19:54:50;4.15;;;2.10;;
34102;SDS011;20381;54.498;18.206;2022-07-12T19:57:17;4.28;;;2.05;;
34102;SDS011;20381;54.498;18.206;2022-07-12T19:59:44;4.17;;;2.00;;
34102;SDS011;20381;54.498;18.206;2022-07-12T20:02:13;3.40;;;2.02;;
34102;SDS011;20381;54.498;18.206;2022-07-12T20:04:40;4.87;;;2.17;;
34102;SDS011;20381;54.498;18.206;2022-07-12T20:07:07;5.17;;;1.85;;
34102;SDS011;20381;54.498;18.206;2022-07-12T20:09:34;2.72;;;1.70;;
34102;SDS011;20381;54.498;18.206;2022-07-12T20:12:01;4.53;;;2.37;;
34102;SDS011;20381;54.498;18.206;2022-07-12T20:14:27;3.75;;;1.70;;
34102;SDS011;20381;54.498;18.206;2022-07-12T20:16:54;4.80;;;2.13;;
34102;SDS011;20381;54.498;18.206;2022-07-12T20:19:20;7.07;;;1.87;;
34102;SDS011;20381;54.498;18.206;2022-07-12T20:21:49;8.10;;;2.70;;
34102;SDS011;20381;54.498;18.206;2022-07-12T20:24:15;4.30;;;2.08;;
34102;SDS011;20381;54.498;18.206;2022-07-12T20:26:42;4.30;;;1.90;;
34102;SDS011;20381;54.498;18.206;2022-07-12T20:29:09;7.00;;;1.87;;
34102;SDS011;20381;54.498;18.206;2022-07-12T20:31:36;4.67;;;2.05;;
34102;SDS011;20381;54.498;18.206;2022-07-12T20:34:02;4.73;;;1.67;;
34102;SDS011;20381;54.498;18.206;2022-07-12T20:36:47;7.00;;;2.37;;
34102;SDS011;20381;54.498;18.206;2022-07-12T20:39:14;4.13;;;2.27;;
34102;SDS011;20381;54.498;18.206;2022-07-12T20:41:42;3.75;;;1.98;;
34102;SDS011;20381;54.498;18.206;2022-07-12T20:44:09;5.25;;;2.00;;
34102;SDS011;20381;54.498;18.206;2022-07-12T20:49:03;4.72;;;2.02;;
34102;SDS011;20381;54.498;18.206;2022-07-12T20:51:29;4.87;;;1.90;;
34102;SDS011;20381;54.498;18.206;2022-07-12T20:53:56;7.50;;;2.10;;
34102;SDS011;20381;54.498;18.206;2022-07-12T20:56:23;3.92;;;2.50;;
34102;SDS011;20381;54.498;18.206;2022-07-12T20:58:49;6.17;;;2.87;;
34102;SDS011;20381;54.498;18.206;2022-07-12T21:01:16;5.03;;;2.40;;
34102;SDS011;20381;54.498;18.206;2022-07-12T21:03:43;4.73;;;2.20;;
34102;SDS011;20381;54.498;18.206;2022-07-12T21:06:10;4.63;;;2.30;;
34102;SDS011;20381;54.498;18.206;2022-07-12T21:08:37;5.67;;;2.58;;
34102;SDS011;20381;54.498;18.206;2022-07-12T21:11:05;3.95;;;2.22;;
34102;SDS011;20381;54.498;18.206;2022-07-12T21:13:31;6.17;;;2.60;;
34102;SDS011;20381;54.498;18.206;2022-07-12T21:15:58;4.75;;;2.30;;
34102;SDS011;20381;54.498;18.206;2022-07-12T21:18:25;6.67;;;3.02;;
34102;SDS011;20381;54.498;18.206;2022-07-12T21:20:52;7.62;;;2.35;;
34102;SDS011;20381;54.498;18.206;2022-07-12T21:23:19;4.17;;;2.03;;
34102;SDS011;20381;54.498;18.206;2022-07-12T21:25:45;7.70;;;3.58;;
34102;SDS011;20381;54.498;18.206;2022-07-12T21:28:12;4.42;;;1.87;;
34102;SDS011;20381;54.498;18.206;2022-07-12T21:30:41;4.80;;;2.00;;
34102;SDS011;20381;54.498;18.206;2022-07-12T21:33:10;4.22;;;1.90;;
34102;SDS011;20381;54.498;18.206;2022-07-12T21:38:03;4.13;;;2.23;;
34102;SDS011;20381;54.498;18.206;2022-07-12T21:40:30;4.77;;;2.37;;
34102;SDS011;20381;54.498;18.206;2022-07-12T21:42:56;4.07;;;2.40;;
34102;SDS011;20381;54.498;18.206;2022-07-12T21:45:23;3.13;;;2.20;;
34102;SDS011;20381;54.498;18.206;2022-07-12T21:47:50;4.72;;;2.05;;
34102;SDS011;20381;54.498;18.206;2022-07-12T21:50:19;4.37;;;2.08;;
34102;SDS011;20381;54.498;18.206;2022-07-12T21:52:45;4.58;;;2.15;;
34102;SDS011;20381;54.498;18.206;2022-07-12T21:55:12;5.53;;;2.08;;
34102;SDS011;20381;54.498;18.206;2022-07-12T21:57:39;4.63;;;1.97;;
34102;SDS011;20381;54.498;18.206;2022-07-12T22:00:06;2.57;;;2.03;;
34102;SDS011;20381;54.498;18.206;2022-07-12T22:02:34;4.92;;;2.20;;
34102;SDS011;20381;54.498;18.206;2022-07-12T22:05:01;3.17;;;1.60;;
34102;SDS011;20381;54.498;18.206;2022-07-12T22:07:27;2.02;;;1.57;;
34102;SDS011;20381;54.498;18.206;2022-07-12T22:09:55;3.87;;;1.72;;
34102;SDS011;20381;54.498;18.206;2022-07-12T22:12:22;2.98;;;1.60;;
34102;SDS011;20381;54.498;18.206;2022-07-12T22:14:48;3.97;;;1.50;;
34102;SDS011;20381;54.498;18.206;2022-07-12T22:17:15;4.07;;;1.90;;
34102;SDS011;20381;54.498;18.206;2022-07-12T22:19:41;4.03;;;2.10;;
34102;SDS011;20381;54.498;18.206;2022-07-12T22:22:08;3.05;;;1.72;;
34102;SDS011;20381;54.498;18.206;2022-07-12T22:24:35;5.37;;;2.05;;
34102;SDS011;20381;54.498;18.206;2022-07-12T22:27:02;1.70;;;1.60;;
34102;SDS011;20381;54.498;18.206;2022-07-12T22:31:55;7.43;;;2.23;;
34102;SDS011;20381;54.498;18.206;2022-07-12T22:34:22;4.33;;;1.82;;
34102;SDS011;20381;54.498;18.206;2022-07-12T22:36:48;3.72;;;2.08;;
34102;SDS011;20381;54.498;18.206;2022-07-12T22:39:16;1.82;;;1.42;;
34102;SDS011;20381;54.498;18.206;2022-07-12T22:41:43;2.33;;;1.42;;
34102;SDS011;20381;54.498;18.206;2022-07-12T22:44:09;2.43;;;1.40;;
34102;SDS011;20381;54.498;18.206;2022-07-12T22:46:36;2.00;;;1.17;;
34102;SDS011;20381;54.498;18.206;2022-07-12T22:49:03;2.37;;;1.30;;
34102;SDS011;20381;54.498;18.206;2022-07-12T22:51:30;5.63;;;1.97;;
34102;SDS011;20381;54.498;18.206;2022-07-12T22:54:15;2.42;;;1.10;;
34102;SDS011;20381;54.498;18.206;2022-07-12T22:56:43;3.40;;;1.37;;
34102;SDS011;20381;54.498;18.206;2022-07-12T23:01:37;4.47;;;1.45;;
34102;SDS011;20381;54.498;18.206;2022-07-12T23:04:04;5.17;;;1.30;;
34102;SDS011;20381;54.498;18.206;2022-07-12T23:06:32;6.95;;;1.42;;
34102;SDS011;20381;54.498;18.206;2022-07-12T23:09:00;4.50;;;1.40;;
34102;SDS011;20381;54.498;18.206;2022-07-12T23:11:26;2.95;;;1.50;;
34102;SDS011;20381;54.498;18.206;2022-07-12T23:13:53;4.75;;;1.10;;
34102;SDS011;20381;54.498;18.206;2022-07-12T23:16:20;6.63;;;2.03;;
34102;SDS011;20381;54.498;18.206;2022-07-12T23:18:46;5.15;;;1.70;;
34102;SDS011;20381;54.498;18.206;2022-07-12T23:21:13;3.27;;;1.30;;
34102;SDS011;20381;54.498;18.206;2022-07-12T23:23:40;2.10;;;1.02;;
34102;SDS011;20381;54.498;18.206;2022-07-12T23:26:07;2.20;;;0.82;;
34102;SDS011;20381;54.498;18.206;2022-07-12T23:28:34;1.87;;;1.10;;
34102;SDS011;20381;54.498;18.206;2022-07-12T23:31:01;4.62;;;1.20;;
34102;SDS011;20381;54.498;18.206;2022-07-12T23:33:29;2.40;;;1.40;;
34102;SDS011;20381;54.498;18.206;2022-07-12T23:35:55;3.83;;;1.10;;
34102;SDS011;20381;54.498;18.206;2022-07-12T23:38:22;3.80;;;1.40;;
34102;SDS011;20381;54.498;18.206;2022-07-12T23:40:49;3.58;;;1.50;;
34102;SDS011;20381;54.498;18.206;2022-07-12T23:43:16;2.52;;;1.12;;
34102;SDS011;20381;54.498;18.206;2022-07-12T23:45:42;3.70;;;1.00;;
34102;SDS011;20381;54.498;18.206;2022-07-12T23:48:09;5.57;;;1.37;;
34102;SDS011;20381;54.498;18.206;2022-07-12T23:50:36;3.30;;;0.90;;
34102;SDS011;20381;54.498;18.206;2022-07-12T23:53:02;4.83;;;1.07;;
34102;SDS011;20381;54.498;18.206;2022-07-12T23:55:29;1.83;;;1.00;;
34102;SDS011;20381;54.498;18.206;2022-07-12T23:57:56;6.65;;;2.42;;
